sensor_id;sensor_type;location;lat;lon;timestamp;temperature;humidity
30244;DHT22;64022;53.652;9.792;2023-11-19T00:00:15;21.10;59.50
30244;DHT22;64022;53.652;9.792;2023-11-19T00:02:41;21.10;59.50
30244;DHT22;64022;53.652;9.792;2023-11-19T00:05:07;21.10;59.50
30244;DHT22;64022;53.652;9.792;2023-11-19T00:07:37;21.10;59.50
30244;DHT22;64022;53.652;9.792;2023-11-19T00:10:07;21.10;59.50
30244;DHT22;64022;53.652;9.792;2023-11-19T00:12:35;21.10;59.50
30244;DHT22;64022;53.652;9.792;2023-11-19T00:15:00;21.10;59.50
30244;DHT22;64022;53.652;9.792;2023-11-19T00:17:26;21.10;59.50
30244;DHT22;64022;53.652;9.792;2023-11-19T00:19:52;21.10;59.50
30244;DHT22;64022;53.652;9.792;2023-11-19T00:22:17;21.10;59.50
30244;DHT22;64022;53.652;9.792;2023-11-19T00:24:43;21.10;59.50
30244;DHT22;64022;53.652;9.792;2023-11-19T00:27:08;21.10;59.50
30244;DHT22;64022;53.652;9.792;2023-11-19T00:29:34;21.10;59.50
30244;DHT22;64022;53.652;9.792;2023-11-19T00:31:59;21.10;59.50
30244;DHT22;64022;53.652;9.792;2023-11-19T00:34:25;21.10;59.50
30244;DHT22;64022;53.652;9.792;2023-11-19T00:36:51;21.10;59.50
30244;DHT22;64022;53.652;9.792;2023-11-19T00:39:16;21.10;59.50
30244;DHT22;64022;53.652;9.792;2023-11-19T00:41:43;21.10;59.50
30244;DHT22;64022;53.652;9.792;2023-11-19T00:44:08;21.10;59.50
30244;DHT22;64022;53.652;9.792;2023-11-19T00:46:34;21.10;59.40
30244;DHT22;64022;53.652;9.792;2023-11-19T00:48:59;21.10;59.50
30244;DHT22;64022;53.652;9.792;2023-11-19T00:51:26;21.10;59.50
30244;DHT22;64022;53.652;9.792;2023-11-19T00:53:51;21.10;59.50
30244;DHT22;64022;53.652;9.792;2023-11-19T00:56:18;21.10;59.40
30244;DHT22;64022;53.652;9.792;2023-11-19T00:58:44;21.10;59.40
30244;DHT22;64022;53.652;9.792;2023-11-19T01:01:13;21.10;59.50
30244;DHT22;64022;53.652;9.792;2023-11-19T01:03:39;21.10;59.40
30244;DHT22;64022;53.652;9.792;2023-11-19T01:06:04;21.10;59.40
30244;DHT22;64022;53.652;9.792;2023-11-19T01:08:30;21.10;59.40
30244;DHT22;64022;53.652;9.792;2023-11-19T01:10:55;21.10;59.40
30244;DHT22;64022;53.652;9.792;2023-11-19T01:13:20;21.10;59.40
30244;DHT22;64022;53.652;9.792;2023-11-19T01:15:46;21.10;59.40
30244;DHT22;64022;53.652;9.792;2023-11-19T01:18:13;21.10;59.40
30244;DHT22;64022;53.652;9.792;2023-11-19T01:20:38;21.10;59.40
30244;DHT22;64022;53.652;9.792;2023-11-19T01:23:04;21.10;59.40
30244;DHT22;64022;53.652;9.792;2023-11-19T01:25:29;21.10;59.30
30244;DHT22;64022;53.652;9.792;2023-11-19T01:27:54;21.10;59.30
30244;DHT22;64022;53.652;9.792;2023-11-19T01:30:23;21.10;59.40
30244;DHT22;64022;53.652;9.792;2023-11-19T01:32:49;21.10;59.30
30244;DHT22;64022;53.652;9.792;2023-11-19T01:35:14;21.10;59.30
30244;DHT22;64022;53.652;9.792;2023-11-19T01:37:40;21.10;59.30
30244;DHT22;64022;53.652;9.792;2023-11-19T01:40:05;21.10;59.30
30244;DHT22;64022;53.652;9.792;2023-11-19T01:42:36;21.10;59.40
30244;DHT22;64022;53.652;9.792;2023-11-19T01:45:03;21.10;59.40
30244;DHT22;64022;53.652;9.792;2023-11-19T01:47:28;21.10;59.30
30244;DHT22;64022;53.652;9.792;2023-11-19T01:49:55;21.10;59.30
30244;DHT22;64022;53.652;9.792;2023-11-19T01:52:21;21.10;59.30
30244;DHT22;64022;53.652;9.792;2023-11-19T01:54:47;21.00;59.20
30244;DHT22;64022;53.652;9.792;2023-11-19T01:57:13;21.10;59.30
30244;DHT22;64022;53.652;9.792;2023-11-19T01:59:39;21.10;59.30
30244;DHT22;64022;53.652;9.792;2023-11-19T02:02:05;21.10;59.30
30244;DHT22;64022;53.652;9.792;2023-11-19T02:04:31;21.10;59.30
30244;DHT22;64022;53.652;9.792;2023-11-19T02:06:57;21.00;59.20
30244;DHT22;64022;53.652;9.792;2023-11-19T02:09:23;21.10;59.30
30244;DHT22;64022;53.652;9.792;2023-11-19T02:11:48;21.10;59.30
30244;DHT22;64022;53.652;9.792;2023-11-19T02:14:19;21.00;59.20
30244;DHT22;64022;53.652;9.792;2023-11-19T02:16:47;21.10;59.30
30244;DHT22;64022;53.652;9.792;2023-11-19T02:19:12;21.10;59.30
30244;DHT22;64022;53.652;9.792;2023-11-19T02:21:38;21.10;59.30
30244;DHT22;64022;53.652;9.792;2023-11-19T02:24:04;21.10;59.30
30244;DHT22;64022;53.652;9.792;2023-11-19T02:29:06;21.10;59.30
30244;DHT22;64022;53.652;9.792;2023-11-19T02:31:33;21.10;59.30
30244;DHT22;64022;53.652;9.792;2023-11-19T02:34:00;21.10;59.20
30244;DHT22;64022;53.652;9.792;2023-11-19T02:36:27;21.10;59.20
30244;DHT22;64022;53.652;9.792;2023-11-19T02:38:53;21.00;59.20
30244;DHT22;64022;53.652;9.792;2023-11-19T02:41:18;21.10;59.20
30244;DHT22;64022;53.652;9.792;2023-11-19T02:43:44;21.10;59.20
30244;DHT22;64022;53.652;9.792;2023-11-19T02:46:09;21.10;59.20
30244;DHT22;64022;53.652;9.792;2023-11-19T02:48:36;21.10;59.20
30244;DHT22;64022;53.652;9.792;2023-11-19T02:51:02;21.10;59.20
30244;DHT22;64022;53.652;9.792;2023-11-19T02:53:29;21.00;59.20
30244;DHT22;64022;53.652;9.792;2023-11-19T02:55:54;21.10;59.20
30244;DHT22;64022;53.652;9.792;2023-11-19T02:58:27;21.10;59.20
30244;DHT22;64022;53.652;9.792;2023-11-19T03:00:54;21.10;59.20
30244;DHT22;64022;53.652;9.792;2023-11-19T03:03:25;21.10;59.20
30244;DHT22;64022;53.652;9.792;2023-11-19T03:05:56;21.10;59.30
30244;DHT22;64022;53.652;9.792;2023-11-19T03:08:22;21.10;59.30
30244;DHT22;64022;53.652;9.792;2023-11-19T03:10:47;21.10;59.80
30244;DHT22;64022;53.652;9.792;2023-11-19T03:13:14;21.10;59.30
30244;DHT22;64022;53.652;9.792;2023-11-19T03:15:39;21.10;59.30
30244;DHT22;64022;53.652;9.792;2023-11-19T03:18:05;21.10;59.20
30244;DHT22;64022;53.652;9.792;2023-11-19T03:20:30;21.10;59.20
30244;DHT22;64022;53.652;9.792;2023-11-19T03:22:56;21.10;59.20
30244;DHT22;64022;53.652;9.792;2023-11-19T03:25:24;21.10;59.20
30244;DHT22;64022;53.652;9.792;2023-11-19T03:27:50;21.10;59.20
30244;DHT22;64022;53.652;9.792;2023-11-19T03:30:15;21.10;59.20
30244;DHT22;64022;53.652;9.792;2023-11-19T03:32:42;21.10;59.20
30244;DHT22;64022;53.652;9.792;2023-11-19T03:35:08;21.10;59.20
30244;DHT22;64022;53.652;9.792;2023-11-19T03:37:34;21.10;59.20
30244;DHT22;64022;53.652;9.792;2023-11-19T03:39:59;21.10;59.20
30244;DHT22;64022;53.652;9.792;2023-11-19T03:42:25;21.10;59.20
30244;DHT22;64022;53.652;9.792;2023-11-19T03:44:51;21.10;59.30
30244;DHT22;64022;53.652;9.792;2023-11-19T03:47:17;21.10;59.20
30244;DHT22;64022;53.652;9.792;2023-11-19T03:49:42;21.10;59.20
30244;DHT22;64022;53.652;9.792;2023-11-19T03:52:11;21.10;59.20
30244;DHT22;64022;53.652;9.792;2023-11-19T03:54:37;21.10;59.20
30244;DHT22;64022;53.652;9.792;2023-11-19T03:57:03;21.10;59.20
30244;DHT22;64022;53.652;9.792;2023-11-19T03:59:29;21.10;59.20
30244;DHT22;64022;53.652;9.792;2023-11-19T04:01:54;21.10;59.20
30244;DHT22;64022;53.652;9.792;2023-11-19T04:04:23;21.10;59.20
30244;DHT22;64022;53.652;9.792;2023-11-19T04:06:48;21.10;59.20
30244;DHT22;64022;53.652;9.792;2023-11-19T04:09:14;21.10;59.20
30244;DHT22;64022;53.652;9.792;2023-11-19T04:11:39;21.10;59.20
30244;DHT22;64022;53.652;9.792;2023-11-19T04:14:05;21.10;59.20
30244;DHT22;64022;53.652;9.792;2023-11-19T04:16:30;21.10;59.20
30244;DHT22;64022;53.652;9.792;2023-11-19T04:18:56;21.10;59.20
30244;DHT22;64022;53.652;9.792;2023-11-19T04:21:21;21.10;59.20
30244;DHT22;64022;53.652;9.792;2023-11-19T04:23:48;21.10;59.20
30244;DHT22;64022;53.652;9.792;2023-11-19T04:26:14;21.10;59.20
30244;DHT22;64022;53.652;9.792;2023-11-19T04:28:41;21.10;59.20
30244;DHT22;64022;53.652;9.792;2023-11-19T04:31:06;21.10;59.20
30244;DHT22;64022;53.652;9.792;2023-11-19T04:33:31;21.10;59.20
30244;DHT22;64022;53.652;9.792;2023-11-19T04:35:57;21.10;59.20
30244;DHT22;64022;53.652;9.792;2023-11-19T04:38:22;21.10;59.20
30244;DHT22;64022;53.652;9.792;2023-11-19T04:40:48;21.10;59.20
30244;DHT22;64022;53.652;9.792;2023-11-19T04:43:13;21.10;59.20
30244;DHT22;64022;53.652;9.792;2023-11-19T04:45:39;21.10;59.20
30244;DHT22;64022;53.652;9.792;2023-11-19T04:48:05;21.10;59.20
30244;DHT22;64022;53.652;9.792;2023-11-19T04:50:30;21.10;59.20
30244;DHT22;64022;53.652;9.792;2023-11-19T04:52:56;21.10;59.10
30244;DHT22;64022;53.652;9.792;2023-11-19T04:55:21;21.10;59.10
30244;DHT22;64022;53.652;9.792;2023-11-19T04:57:47;21.10;59.10
30244;DHT22;64022;53.652;9.792;2023-11-19T05:00:13;21.10;59.10
30244;DHT22;64022;53.652;9.792;2023-11-19T05:02:38;21.10;59.10
30244;DHT22;64022;53.652;9.792;2023-11-19T05:05:04;21.10;59.10
30244;DHT22;64022;53.652;9.792;2023-11-19T05:07:30;21.10;59.10
30244;DHT22;64022;53.652;9.792;2023-11-19T05:09:55;21.10;59.60
30244;DHT22;64022;53.652;9.792;2023-11-19T05:12:21;21.10;59.10
30244;DHT22;64022;53.652;9.792;2023-11-19T05:14:46;21.10;59.10
30244;DHT22;64022;53.652;9.792;2023-11-19T05:17:15;21.10;59.10
30244;DHT22;64022;53.652;9.792;2023-11-19T05:19:41;21.10;59.10
30244;DHT22;64022;53.652;9.792;2023-11-19T05:22:06;21.10;59.10
30244;DHT22;64022;53.652;9.792;2023-11-19T05:24:32;21.10;59.10
30244;DHT22;64022;53.652;9.792;2023-11-19T05:26:58;21.10;59.10
30244;DHT22;64022;53.652;9.792;2023-11-19T05:29:23;21.10;59.10
30244;DHT22;64022;53.652;9.792;2023-11-19T05:31:49;21.10;59.10
30244;DHT22;64022;53.652;9.792;2023-11-19T05:34:15;21.10;59.10
30244;DHT22;64022;53.652;9.792;2023-11-19T05:36:40;21.10;59.10
30244;DHT22;64022;53.652;9.792;2023-11-19T05:39:06;21.10;59.10
30244;DHT22;64022;53.652;9.792;2023-11-19T05:41:31;21.10;59.10
30244;DHT22;64022;53.652;9.792;2023-11-19T05:43:57;21.10;59.10
30244;DHT22;64022;53.652;9.792;2023-11-19T05:46:22;21.10;59.10
30244;DHT22;64022;53.652;9.792;2023-11-19T05:48:48;21.10;59.10
30244;DHT22;64022;53.652;9.792;2023-11-19T05:51:13;21.10;59.10
30244;DHT22;64022;53.652;9.792;2023-11-19T05:53:40;21.10;59.10
30244;DHT22;64022;53.652;9.792;2023-11-19T05:56:06;21.10;59.10
30244;DHT22;64022;53.652;9.792;2023-11-19T05:58:34;21.10;59.10
30244;DHT22;64022;53.652;9.792;2023-11-19T06:01:01;21.10;59.10
30244;DHT22;64022;53.652;9.792;2023-11-19T06:03:26;21.10;59.10
30244;DHT22;64022;53.652;9.792;2023-11-19T06:05:52;21.10;59.10
30244;DHT22;64022;53.652;9.792;2023-11-19T06:08:17;21.10;59.00
30244;DHT22;64022;53.652;9.792;2023-11-19T06:10:43;21.10;59.10
30244;DHT22;64022;53.652;9.792;2023-11-19T06:13:11;21.10;59.10
30244;DHT22;64022;53.652;9.792;2023-11-19T06:15:37;21.10;59.10
30244;DHT22;64022;53.652;9.792;2023-11-19T06:18:03;21.10;59.10
30244;DHT22;64022;53.652;9.792;2023-11-19T06:20:29;21.10;59.10
30244;DHT22;64022;53.652;9.792;2023-11-19T06:22:55;21.10;59.10
30244;DHT22;64022;53.652;9.792;2023-11-19T06:25:22;21.10;59.10
30244;DHT22;64022;53.652;9.792;2023-11-19T06:27:47;21.10;59.20
30244;DHT22;64022;53.652;9.792;2023-11-19T06:30:13;21.10;59.20
30244;DHT22;64022;53.652;9.792;2023-11-19T06:32:38;21.10;59.10
30244;DHT22;64022;53.652;9.792;2023-11-19T06:35:04;21.10;59.20
30244;DHT22;64022;53.652;9.792;2023-11-19T06:37:30;21.10;59.10
30244;DHT22;64022;53.652;9.792;2023-11-19T06:39:55;21.10;59.20
30244;DHT22;64022;53.652;9.792;2023-11-19T06:42:21;21.10;59.20
30244;DHT22;64022;53.652;9.792;2023-11-19T06:44:46;21.10;59.20
30244;DHT22;64022;53.652;9.792;2023-11-19T06:47:11;21.10;59.10
30244;DHT22;64022;53.652;9.792;2023-11-19T06:49:37;21.10;58.20
30244;DHT22;64022;53.652;9.792;2023-11-19T06:52:02;21.00;57.50
30244;DHT22;64022;53.652;9.792;2023-11-19T06:54:29;20.90;57.90
30244;DHT22;64022;53.652;9.792;2023-11-19T06:56:55;20.80;58.40
30244;DHT22;64022;53.652;9.792;2023-11-19T06:59:22;20.90;58.70
30244;DHT22;64022;53.652;9.792;2023-11-19T07:01:47;20.90;58.90
30244;DHT22;64022;53.652;9.792;2023-11-19T07:04:12;20.90;59.00
30244;DHT22;64022;53.652;9.792;2023-11-19T07:06:38;20.90;59.10
30244;DHT22;64022;53.652;9.792;2023-11-19T07:09:06;20.90;59.20
30244;DHT22;64022;53.652;9.792;2023-11-19T07:11:35;21.00;59.30
30244;DHT22;64022;53.652;9.792;2023-11-19T07:14:01;20.90;59.40
30244;DHT22;64022;53.652;9.792;2023-11-19T07:16:27;21.00;59.50
30244;DHT22;64022;53.652;9.792;2023-11-19T07:18:52;21.00;59.60
30244;DHT22;64022;53.652;9.792;2023-11-19T07:21:18;21.00;59.70
30244;DHT22;64022;53.652;9.792;2023-11-19T07:23:43;21.10;59.80
30244;DHT22;64022;53.652;9.792;2023-11-19T07:26:08;21.10;59.90
30244;DHT22;64022;53.652;9.792;2023-11-19T07:28:34;21.10;60.00
30244;DHT22;64022;53.652;9.792;2023-11-19T07:31:00;21.10;60.10
30244;DHT22;64022;53.652;9.792;2023-11-19T07:33:25;21.10;60.20
30244;DHT22;64022;53.652;9.792;2023-11-19T07:35:50;21.10;60.30
30244;DHT22;64022;53.652;9.792;2023-11-19T07:38:16;21.10;60.40
30244;DHT22;64022;53.652;9.792;2023-11-19T07:40:41;21.10;60.50
30244;DHT22;64022;53.652;9.792;2023-11-19T07:43:07;21.10;60.60
30244;DHT22;64022;53.652;9.792;2023-11-19T07:45:32;21.10;60.70
30244;DHT22;64022;53.652;9.792;2023-11-19T07:47:58;21.20;60.90
30244;DHT22;64022;53.652;9.792;2023-11-19T07:50:23;21.20;60.90
30244;DHT22;64022;53.652;9.792;2023-11-19T07:52:50;21.20;61.10
30244;DHT22;64022;53.652;9.792;2023-11-19T07:55:15;21.20;61.20
30244;DHT22;64022;53.652;9.792;2023-11-19T07:57:41;21.20;61.30
30244;DHT22;64022;53.652;9.792;2023-11-19T08:00:07;21.20;61.40
30244;DHT22;64022;53.652;9.792;2023-11-19T08:02:32;21.20;61.50
30244;DHT22;64022;53.652;9.792;2023-11-19T08:04:59;21.20;61.60
30244;DHT22;64022;53.652;9.792;2023-11-19T08:07:24;21.20;61.70
30244;DHT22;64022;53.652;9.792;2023-11-19T08:09:50;21.20;61.80
30244;DHT22;64022;53.652;9.792;2023-11-19T08:12:15;21.20;61.90
30244;DHT22;64022;53.652;9.792;2023-11-19T08:14:42;21.20;61.50
30244;DHT22;64022;53.652;9.792;2023-11-19T08:17:09;21.20;61.10
30244;DHT22;64022;53.652;9.792;2023-11-19T08:19:34;21.10;61.40
30244;DHT22;64022;53.652;9.792;2023-11-19T08:22:00;21.10;61.70
30244;DHT22;64022;53.652;9.792;2023-11-19T08:24:25;21.10;62.00
30244;DHT22;64022;53.652;9.792;2023-11-19T08:26:51;21.20;62.10
30244;DHT22;64022;53.652;9.792;2023-11-19T08:29:16;21.20;62.30
30244;DHT22;64022;53.652;9.792;2023-11-19T08:31:42;21.20;62.40
30244;DHT22;64022;53.652;9.792;2023-11-19T08:34:07;21.20;62.40
30244;DHT22;64022;53.652;9.792;2023-11-19T08:36:35;21.20;62.50
30244;DHT22;64022;53.652;9.792;2023-11-19T08:39:01;21.20;62.60
30244;DHT22;64022;53.652;9.792;2023-11-19T08:41:26;21.30;62.70
30244;DHT22;64022;53.652;9.792;2023-11-19T08:43:52;21.30;62.80
30244;DHT22;64022;53.652;9.792;2023-11-19T08:46:18;21.30;62.80
30244;DHT22;64022;53.652;9.792;2023-11-19T08:48:43;21.30;62.90
30244;DHT22;64022;53.652;9.792;2023-11-19T08:51:08;21.30;63.00
30244;DHT22;64022;53.652;9.792;2023-11-19T08:53:34;21.30;63.20
30244;DHT22;64022;53.652;9.792;2023-11-19T08:55:59;21.40;63.30
30244;DHT22;64022;53.652;9.792;2023-11-19T08:58:25;21.40;63.30
30244;DHT22;64022;53.652;9.792;2023-11-19T09:00:51;21.40;63.40
30244;DHT22;64022;53.652;9.792;2023-11-19T09:03:16;21.40;63.50
30244;DHT22;64022;53.652;9.792;2023-11-19T09:05:42;21.40;63.50
30244;DHT22;64022;53.652;9.792;2023-11-19T09:08:07;21.40;63.60
30244;DHT22;64022;53.652;9.792;2023-11-19T09:10:33;21.40;63.60
30244;DHT22;64022;53.652;9.792;2023-11-19T09:12:59;21.40;64.20
30244;DHT22;64022;53.652;9.792;2023-11-19T09:15:24;21.40;63.70
30244;DHT22;64022;53.652;9.792;2023-11-19T09:17:50;21.40;63.70
30244;DHT22;64022;53.652;9.792;2023-11-19T09:20:15;21.40;63.70
30244;DHT22;64022;53.652;9.792;2023-11-19T09:22:41;21.40;63.80
30244;DHT22;64022;53.652;9.792;2023-11-19T09:25:07;21.40;63.80
30244;DHT22;64022;53.652;9.792;2023-11-19T09:27:32;21.40;63.80
30244;DHT22;64022;53.652;9.792;2023-11-19T09:29:58;21.40;63.70
30244;DHT22;64022;53.652;9.792;2023-11-19T09:32:24;21.40;63.70
30244;DHT22;64022;53.652;9.792;2023-11-19T09:34:49;21.40;63.70
30244;DHT22;64022;53.652;9.792;2023-11-19T09:37:15;21.40;63.70
30244;DHT22;64022;53.652;9.792;2023-11-19T09:39:40;21.30;63.70
30244;DHT22;64022;53.652;9.792;2023-11-19T09:42:09;21.30;63.70
30244;DHT22;64022;53.652;9.792;2023-11-19T09:44:34;21.40;63.70
30244;DHT22;64022;53.652;9.792;2023-11-19T09:47:00;21.40;63.70
30244;DHT22;64022;53.652;9.792;2023-11-19T09:49:26;21.40;63.70
30244;DHT22;64022;53.652;9.792;2023-11-19T09:51:52;21.40;63.60
30244;DHT22;64022;53.652;9.792;2023-11-19T09:54:17;21.40;63.50
30244;DHT22;64022;53.652;9.792;2023-11-19T09:56:43;21.40;63.50
30244;DHT22;64022;53.652;9.792;2023-11-19T09:59:08;21.40;63.40
30244;DHT22;64022;53.652;9.792;2023-11-19T10:01:36;21.40;63.50
30244;DHT22;64022;53.652;9.792;2023-11-19T10:04:02;21.30;63.40
30244;DHT22;64022;53.652;9.792;2023-11-19T10:06:27;21.40;63.40
30244;DHT22;64022;53.652;9.792;2023-11-19T10:08:53;21.40;63.40
30244;DHT22;64022;53.652;9.792;2023-11-19T10:11:18;21.40;63.40
30244;DHT22;64022;53.652;9.792;2023-11-19T10:13:44;21.40;63.30
30244;DHT22;64022;53.652;9.792;2023-11-19T10:16:13;21.40;63.30
30244;DHT22;64022;53.652;9.792;2023-11-19T10:18:45;21.40;63.30
30244;DHT22;64022;53.652;9.792;2023-11-19T10:21:11;21.40;63.30
30244;DHT22;64022;53.652;9.792;2023-11-19T10:23:51;21.40;63.20
30244;DHT22;64022;53.652;9.792;2023-11-19T10:26:17;21.40;63.20
30244;DHT22;64022;53.652;9.792;2023-11-19T10:28:43;21.40;63.10
30244;DHT22;64022;53.652;9.792;2023-11-19T10:31:14;21.40;63.10
30244;DHT22;64022;53.652;9.792;2023-11-19T10:33:40;21.40;63.10
30244;DHT22;64022;53.652;9.792;2023-11-19T10:36:06;21.40;63.00
30244;DHT22;64022;53.652;9.792;2023-11-19T10:38:32;21.40;63.00
30244;DHT22;64022;53.652;9.792;2023-11-19T10:40:57;21.40;63.00
30244;DHT22;64022;53.652;9.792;2023-11-19T10:43:24;21.40;63.00
30244;DHT22;64022;53.652;9.792;2023-11-19T10:45:50;21.40;62.90
30244;DHT22;64022;53.652;9.792;2023-11-19T10:48:15;21.40;62.90
30244;DHT22;64022;53.652;9.792;2023-11-19T10:50:41;21.40;62.90
30244;DHT22;64022;53.652;9.792;2023-11-19T10:53:08;21.40;62.90
30244;DHT22;64022;53.652;9.792;2023-11-19T10:55:34;21.40;62.80
30244;DHT22;64022;53.652;9.792;2023-11-19T10:58:01;21.40;62.80
30244;DHT22;64022;53.652;9.792;2023-11-19T11:00:29;21.50;62.90
30244;DHT22;64022;53.652;9.792;2023-11-19T11:02:56;21.40;62.80
30244;DHT22;64022;53.652;9.792;2023-11-19T11:05:25;21.40;62.80
30244;DHT22;64022;53.652;9.792;2023-11-19T11:07:51;21.40;62.70
30244;DHT22;64022;53.652;9.792;2023-11-19T11:10:17;21.40;62.70
30244;DHT22;64022;53.652;9.792;2023-11-19T11:12:43;21.40;62.70
30244;DHT22;64022;53.652;9.792;2023-11-19T11:15:10;21.40;62.70
30244;DHT22;64022;53.652;9.792;2023-11-19T11:17:37;21.40;62.70
30244;DHT22;64022;53.652;9.792;2023-11-19T11:20:04;21.40;62.70
30244;DHT22;64022;53.652;9.792;2023-11-19T11:22:30;21.50;62.70
30244;DHT22;64022;53.652;9.792;2023-11-19T11:32:30;21.40;62.60
30244;DHT22;64022;53.652;9.792;2023-11-19T11:35:12;21.50;62.60
30244;DHT22;64022;53.652;9.792;2023-11-19T11:37:45;21.50;62.60
30244;DHT22;64022;53.652;9.792;2023-11-19T11:40:16;21.50;62.60
30244;DHT22;64022;53.652;9.792;2023-11-19T11:42:46;21.50;62.60
30244;DHT22;64022;53.652;9.792;2023-11-19T11:45:12;21.50;62.50
30244;DHT22;64022;53.652;9.792;2023-11-19T11:50:11;21.40;62.40
30244;DHT22;64022;53.652;9.792;2023-11-19T11:57:49;21.50;62.40
30244;DHT22;64022;53.652;9.792;2023-11-19T12:01:00;21.50;62.40
30244;DHT22;64022;53.652;9.792;2023-11-19T12:03:02;21.50;62.40
30244;DHT22;64022;53.652;9.792;2023-11-19T12:05:29;21.50;62.40
30244;DHT22;64022;53.652;9.792;2023-11-19T12:07:55;21.50;62.40
30244;DHT22;64022;53.652;9.792;2023-11-19T12:10:23;21.50;62.30
30244;DHT22;64022;53.652;9.792;2023-11-19T12:12:49;21.50;62.30
30244;DHT22;64022;53.652;9.792;2023-11-19T12:15:17;21.50;62.30
30244;DHT22;64022;53.652;9.792;2023-11-19T12:17:48;21.50;62.30
30244;DHT22;64022;53.652;9.792;2023-11-19T12:20:17;21.50;62.30
30244;DHT22;64022;53.652;9.792;2023-11-19T12:22:44;21.50;62.20
30244;DHT22;64022;53.652;9.792;2023-11-19T12:25:11;21.50;62.20
30244;DHT22;64022;53.652;9.792;2023-11-19T12:27:40;21.50;62.20
30244;DHT22;64022;53.652;9.792;2023-11-19T12:30:06;21.50;62.20
30244;DHT22;64022;53.652;9.792;2023-11-19T12:32:37;21.50;62.10
30244;DHT22;64022;53.652;9.792;2023-11-19T12:35:02;21.50;62.10
30244;DHT22;64022;53.652;9.792;2023-11-19T12:37:28;21.50;62.10
30244;DHT22;64022;53.652;9.792;2023-11-19T12:39:56;21.50;62.10
30244;DHT22;64022;53.652;9.792;2023-11-19T12:42:34;21.50;62.10
30244;DHT22;64022;53.652;9.792;2023-11-19T12:45:00;21.50;62.00
30244;DHT22;64022;53.652;9.792;2023-11-19T12:47:25;21.50;62.00
30244;DHT22;64022;53.652;9.792;2023-11-19T12:49:57;21.50;62.00
30244;DHT22;64022;53.652;9.792;2023-11-19T12:52:23;21.50;62.00
30244;DHT22;64022;53.652;9.792;2023-11-19T12:54:49;21.50;61.90
30244;DHT22;64022;53.652;9.792;2023-11-19T12:57:14;21.50;61.90
30244;DHT22;64022;53.652;9.792;2023-11-19T12:59:40;21.50;61.90
30244;DHT22;64022;53.652;9.792;2023-11-19T13:02:06;21.50;61.90
30244;DHT22;64022;53.652;9.792;2023-11-19T13:04:32;21.50;61.90
30244;DHT22;64022;53.652;9.792;2023-11-19T13:07:00;21.50;61.90
30244;DHT22;64022;53.652;9.792;2023-11-19T13:09:28;21.50;61.80
30244;DHT22;64022;53.652;9.792;2023-11-19T13:11:55;21.50;61.80
30244;DHT22;64022;53.652;9.792;2023-11-19T13:14:21;21.50;61.80
30244;DHT22;64022;53.652;9.792;2023-11-19T13:16:47;21.50;61.80
30244;DHT22;64022;53.652;9.792;2023-11-19T13:19:15;21.50;61.80
30244;DHT22;64022;53.652;9.792;2023-11-19T13:21:45;21.50;61.80
30244;DHT22;64022;53.652;9.792;2023-11-19T13:24:12;21.50;61.70
30244;DHT22;64022;53.652;9.792;2023-11-19T13:26:38;21.50;61.70
30244;DHT22;64022;53.652;9.792;2023-11-19T13:29:04;21.50;61.70
30244;DHT22;64022;53.652;9.792;2023-11-19T13:31:29;21.50;61.70
30244;DHT22;64022;53.652;9.792;2023-11-19T13:33:55;21.50;62.20
30244;DHT22;64022;53.652;9.792;2023-11-19T13:36:21;21.50;61.60
30244;DHT22;64022;53.652;9.792;2023-11-19T13:38:47;21.50;61.60
30244;DHT22;64022;53.652;9.792;2023-11-19T13:41:13;21.50;61.60
30244;DHT22;64022;53.652;9.792;2023-11-19T13:43:39;21.50;61.60
30244;DHT22;64022;53.652;9.792;2023-11-19T13:46:04;21.50;61.50
30244;DHT22;64022;53.652;9.792;2023-11-19T13:48:30;21.50;61.50
30244;DHT22;64022;53.652;9.792;2023-11-19T13:50:55;21.50;61.50
30244;DHT22;64022;53.652;9.792;2023-11-19T13:53:21;21.50;61.50
30244;DHT22;64022;53.652;9.792;2023-11-19T13:55:47;21.50;61.50
30244;DHT22;64022;53.652;9.792;2023-11-19T13:58:13;21.50;61.50
30244;DHT22;64022;53.652;9.792;2023-11-19T14:00:38;21.50;61.50
30244;DHT22;64022;53.652;9.792;2023-11-19T14:03:03;21.50;61.50
30244;DHT22;64022;53.652;9.792;2023-11-19T14:05:29;21.50;61.40
30244;DHT22;64022;53.652;9.792;2023-11-19T14:07:55;21.50;61.40
30244;DHT22;64022;53.652;9.792;2023-11-19T14:10:22;21.50;61.40
30244;DHT22;64022;53.652;9.792;2023-11-19T14:12:48;21.50;61.40
30244;DHT22;64022;53.652;9.792;2023-11-19T14:15:15;21.40;61.30
30244;DHT22;64022;53.652;9.792;2023-11-19T14:17:42;21.50;61.40
30244;DHT22;64022;53.652;9.792;2023-11-19T14:20:08;21.50;61.40
30244;DHT22;64022;53.652;9.792;2023-11-19T14:22:41;21.50;61.30
30244;DHT22;64022;53.652;9.792;2023-11-19T14:25:08;21.50;61.30
30244;DHT22;64022;53.652;9.792;2023-11-19T14:27:37;21.40;61.30
30244;DHT22;64022;53.652;9.792;2023-11-19T14:30:04;21.40;61.20
30244;DHT22;64022;53.652;9.792;2023-11-19T14:32:30;21.40;61.20
30244;DHT22;64022;53.652;9.792;2023-11-19T14:34:56;21.40;61.20
30244;DHT22;64022;53.652;9.792;2023-11-19T14:37:21;21.40;61.20
30244;DHT22;64022;53.652;9.792;2023-11-19T14:39:47;21.40;61.20
30244;DHT22;64022;53.652;9.792;2023-11-19T14:42:12;21.40;61.20
30244;DHT22;64022;53.652;9.792;2023-11-19T14:44:38;21.40;61.20
30244;DHT22;64022;53.652;9.792;2023-11-19T14:47:04;21.40;61.20
30244;DHT22;64022;53.652;9.792;2023-11-19T14:49:30;21.40;61.20
30244;DHT22;64022;53.652;9.792;2023-11-19T14:51:55;21.40;61.20
30244;DHT22;64022;53.652;9.792;2023-11-19T14:54:21;21.40;61.20
30244;DHT22;64022;53.652;9.792;2023-11-19T14:56:46;21.50;61.20
30244;DHT22;64022;53.652;9.792;2023-11-19T14:59:12;21.40;61.20
30244;DHT22;64022;53.652;9.792;2023-11-19T15:01:37;21.40;61.20
30244;DHT22;64022;53.652;9.792;2023-11-19T15:04:03;21.50;61.20
30244;DHT22;64022;53.652;9.792;2023-11-19T15:06:28;21.40;61.10
30244;DHT22;64022;53.652;9.792;2023-11-19T15:08:56;21.50;61.20
30244;DHT22;64022;53.652;9.792;2023-11-19T15:11:22;21.40;61.10
30244;DHT22;64022;53.652;9.792;2023-11-19T15:13:47;21.40;61.10
30244;DHT22;64022;53.652;9.792;2023-11-19T15:16:14;21.40;61.10
30244;DHT22;64022;53.652;9.792;2023-11-19T15:18:40;21.40;61.10
30244;DHT22;64022;53.652;9.792;2023-11-19T15:21:06;21.50;61.10
30244;DHT22;64022;53.652;9.792;2023-11-19T15:23:31;21.40;61.10
30244;DHT22;64022;53.652;9.792;2023-11-19T15:25:57;21.40;61.10
30244;DHT22;64022;53.652;9.792;2023-11-19T15:28:22;21.40;61.10
30244;DHT22;64022;53.652;9.792;2023-11-19T15:30:48;21.50;61.10
30244;DHT22;64022;53.652;9.792;2023-11-19T15:33:14;21.40;61.10
30244;DHT22;64022;53.652;9.792;2023-11-19T15:35:40;21.50;61.10
30244;DHT22;64022;53.652;9.792;2023-11-19T15:38:06;21.40;61.00
30244;DHT22;64022;53.652;9.792;2023-11-19T15:40:35;21.50;61.10